ADDS METAR Data

Data at: 0529 UTC 19 Jan 2018

METAR for:KEEN (Keene/Hopkins Arpt, NH, US)
Text:KEEN 190456Z AUTO 20003KT 10SM OVC035 M06/M08 A2994 RMK AO2 SLP161 T10611078 400061161 FZRANO TSNO
Temperature: -6.1°C ( 21°F)
Dewpoint: -7.8°C ( 18°F) [RH = 88%]
Pressure (altimeter):29.94 inches Hg (1014.0 mb) [Sea level pressure: 1016.1 mb]
Winds:from the SSW (200 degrees) at 3 MPH (3 knots; 1.5 m/s)
Visibility:10 or more sm (16+ km)
Ceiling:3500 feet AGL
Clouds: overcast cloud deck at 3500 feet AGL
QC Flag:automated observation with no human augmentation